createdAt,value
2019-06-20T00:02:29.284Z,100509.74
2019-06-20T00:07:23.253Z,100505.90
2019-06-20T00:12:17.383Z,100517.51
2019-06-20T00:17:11.380Z,100505.07
2019-06-20T00:22:05.368Z,100504.70
2019-06-20T00:26:59.373Z,100512.45
2019-06-20T00:31:53.424Z,100512.45
2019-06-20T00:36:47.392Z,100517.83
2019-06-20T00:41:41.471Z,100517.55
2019-06-20T00:46:35.439Z,100520.89
2019-06-20T00:51:29.473Z,100523.59
2019-06-20T00:56:23.533Z,100519.23
2019-06-20T01:01:17.502Z,100527.00
2019-06-20T01:06:11.435Z,100542.98
2019-06-20T01:11:05.472Z,100548.03
2019-06-20T01:15:59.433Z,100562.15
2019-06-20T01:20:53.555Z,100569.27
2019-06-20T01:25:49.572Z,100571.89
2019-06-20T01:30:43.650Z,100571.75
2019-06-20T01:35:37.613Z,100577.20
2019-06-20T01:40:31.602Z,100589.97
2019-06-20T01:45:25.570Z,100593.98
2019-06-20T01:50:19.529Z,100593.78
2019-06-20T01:55:13.615Z,100595.28
2019-06-20T02:00:08.377Z,100603.86
2019-06-20T02:05:04.889Z,100608.41
2019-06-20T02:09:59.220Z,100606.33
2019-06-20T02:14:53.274Z,100604.74
2019-06-20T02:19:47.269Z,100600.48
2019-06-20T02:24:41.320Z,100603.03
2019-06-20T02:29:35.298Z,100606.23
2019-06-20T02:34:29.244Z,100605.19
2019-06-20T02:39:23.202Z,100606.41
2019-06-20T02:44:28.995Z,100613.56
2019-06-20T02:49:13.042Z,100618.27
2019-06-20T02:54:07.020Z,100619.94
2019-06-20T02:59:01.090Z,100619.94
2019-06-20T03:03:55.054Z,100619.77
2019-06-20T03:08:49.019Z,100616.63
2019-06-20T03:13:42.972Z,100625.23
2019-06-20T03:18:36.960Z,100620.73
2019-06-20T03:23:30.912Z,100627.14
2019-06-20T03:28:24.878Z,100621.05
2019-06-20T03:33:18.836Z,100624.03
2019-06-20T03:38:12.805Z,100625.36
2019-06-20T03:43:06.870Z,100634.48
2019-06-20T03:48:00.821Z,100640.52
2019-06-20T03:53:00.812Z,100650.97
2019-06-20T03:57:54.797Z,100653.82
2019-06-20T04:02:48.755Z,100664.77
2019-06-20T04:07:42.712Z,100667.10
2019-06-20T04:12:36.725Z,100680.70
2019-06-20T04:17:30.683Z,100685.41
2019-06-20T04:22:24.657Z,100682.83
2019-06-20T04:27:18.612Z,100691.25
2019-06-20T04:32:12.593Z,100694.34
2019-06-20T04:37:06.784Z,100692.67
2019-06-20T04:42:00.740Z,100695.98
2019-06-20T04:46:59.358Z,100697.41
2019-06-20T04:51:53.338Z,100703.97
2019-06-20T04:56:47.310Z,100703.70
2019-06-20T05:01:41.573Z,100710.91
2019-06-20T05:06:35.543Z,100723.52
2019-06-20T05:11:29.537Z,100718.81
2019-06-20T05:16:23.517Z,100722.27
2019-06-20T05:21:17.495Z,100722.30
2019-06-20T05:26:11.488Z,100729.27
2019-06-20T05:31:05.501Z,100735.14
2019-06-20T05:35:59.439Z,100738.37
2019-06-20T05:40:53.428Z,100734.41
2019-06-20T05:45:48.826Z,100738.97
2019-06-20T05:50:43.164Z,100736.23
2019-06-20T05:55:37.118Z,100741.75
2019-06-20T06:00:31.076Z,100741.77
2019-06-20T06:05:25.033Z,100741.90
2019-06-20T06:10:19.184Z,100743.31
2019-06-20T06:15:14.078Z,100757.62
2019-06-20T06:20:08.453Z,100756.31
2019-06-20T06:25:04.059Z,100756.24
2019-06-20T06:29:58.142Z,100764.80
2019-06-20T06:34:52.100Z,100768.70
2019-06-20T06:39:46.047Z,100776.93
2019-06-20T06:44:40.106Z,100775.03
2019-06-20T06:49:34.076Z,100772.09
2019-06-20T06:54:28.092Z,100774.89
2019-06-20T06:59:22.106Z,100778.42
2019-06-20T07:04:16.049Z,100775.16
2019-06-20T07:09:10.317Z,100776.36
2019-06-20T07:14:04.411Z,100774.92
2019-06-20T07:18:58.404Z,100765.44
2019-06-20T07:23:52.404Z,100778.03
2019-06-20T07:28:46.364Z,100774.81
2019-06-20T07:33:40.345Z,100773.25
2019-06-20T07:38:34.348Z,100775.58
2019-06-20T07:43:28.297Z,100777.21
2019-06-20T07:48:22.230Z,100775.22
2019-06-20T07:53:16.200Z,100779.67
2019-06-20T07:58:10.154Z,100776.11
2019-06-20T08:03:04.124Z,100781.23
2019-06-20T08:07:58.114Z,100783.06
2019-06-20T08:12:52.088Z,100795.80
2019-06-20T08:17:46.109Z,100798.41
2019-06-20T08:22:40.180Z,100795.21
2019-06-20T08:27:52.951Z,100800.20
2019-06-20T08:32:47.131Z,100806.19
2019-06-20T08:37:41.240Z,100793.34
2019-06-20T08:42:35.262Z,100794.34
2019-06-20T08:47:29.242Z,100794.82
2019-06-20T08:52:23.209Z,100793.94
2019-06-20T08:57:17.174Z,100794.19
2019-06-20T09:02:11.152Z,100796.94
2019-06-20T09:07:05.320Z,100792.87
2019-06-20T09:12:00.394Z,100798.11
2019-06-20T09:16:54.982Z,100799.09
2019-06-20T09:21:49.175Z,100802.58
2019-06-20T09:26:43.237Z,100799.98
2019-06-20T09:31:37.331Z,100803.63
2019-06-20T09:36:31.283Z,100807.57
2019-06-20T09:41:25.465Z,100810.10
2019-06-20T09:46:19.807Z,100814.55
2019-06-20T09:51:13.860Z,100819.89
2019-06-20T09:56:07.963Z,100826.35
2019-06-20T10:01:01.981Z,100830.94
2019-06-20T10:05:56.691Z,100829.50
2019-06-20T10:10:52.337Z,100830.45
2019-06-20T10:15:47.857Z,100822.77
2019-06-20T10:20:42.091Z,100815.00
2019-06-20T10:25:36.600Z,100816.03
2019-06-20T10:30:30.568Z,100819.38
2019-06-20T10:35:24.978Z,100822.99
2019-06-20T10:40:19.463Z,100816.66
2019-06-20T10:45:14.932Z,100821.94
2019-06-20T10:50:09.400Z,100810.53
2019-06-20T10:55:07.134Z,100812.03
2019-06-20T11:00:01.253Z,100811.44
2019-06-20T11:04:55.339Z,100819.95
2019-06-20T11:09:49.519Z,100828.74
2019-06-20T11:14:44.119Z,100826.05
2019-06-20T11:19:39.667Z,100826.63
2019-06-20T11:24:33.821Z,100821.17
2019-06-20T11:29:28.383Z,100810.14
2019-06-20T11:34:22.496Z,100816.03
2019-06-20T11:39:16.463Z,100815.28
2019-06-20T11:44:10.455Z,100813.05
2019-06-20T11:49:04.520Z,100812.35
2019-06-20T11:53:58.642Z,100805.32
2019-06-20T11:58:52.741Z,100811.55
2019-06-20T12:03:46.779Z,100811.17
2019-06-20T12:08:40.773Z,100801.86
2019-06-20T12:13:34.757Z,100796.52
2019-06-20T12:18:28.993Z,100798.53
2019-06-20T12:23:22.960Z,100793.34
2019-06-20T12:28:17.047Z,100793.77
2019-06-20T12:33:11.226Z,100797.25
2019-06-20T12:38:05.318Z,100788.00
2019-06-20T12:42:59.379Z,100771.58
2019-06-20T12:47:53.358Z,100779.56
2019-06-20T12:52:47.782Z,100779.81
2019-06-20T12:57:42.386Z,100785.66
2019-06-20T13:02:39.843Z,100798.06
2019-06-20T13:07:33.306Z,100798.06
2019-06-20T13:12:27.425Z,100800.29
2019-06-20T13:17:21.448Z,100811.73
2019-06-20T13:22:15.673Z,100820.72
2019-06-20T13:27:09.632Z,100825.21
2019-06-20T13:32:04.657Z,100831.44
2019-06-20T13:36:58.833Z,100832.70
2019-06-20T13:41:52.892Z,100839.14
2019-06-20T13:46:46.899Z,100849.18
2019-06-20T13:51:41.945Z,100856.64
2019-06-20T13:56:36.266Z,100846.97
2019-06-20T14:01:30.345Z,100858.89
2019-06-20T14:06:24.323Z,100867.11
2019-06-20T14:11:18.296Z,100874.61
2019-06-20T14:16:12.301Z,100881.33
2019-06-20T14:21:06.263Z,100878.84
2019-06-20T14:26:00.279Z,100877.22
2019-06-20T14:30:54.235Z,100879.66
2019-06-20T14:35:49.735Z,100872.03
2019-06-20T14:40:45.321Z,100879.42
2019-06-20T14:45:39.460Z,100880.66
2019-06-20T14:50:33.459Z,100882.08
2019-06-20T14:55:27.565Z,100887.91
2019-06-20T15:00:22.295Z,100895.66
2019-06-20T15:05:17.086Z,100894.11
2019-06-20T15:10:13.458Z,100891.84
2019-06-20T15:15:08.080Z,100885.23
2019-06-20T15:20:06.657Z,100890.00
2019-06-20T15:25:00.891Z,100886.30
2019-06-20T15:29:56.305Z,100885.77
2019-06-20T15:34:51.569Z,100887.08
2019-06-20T15:39:46.742Z,100882.07
2019-06-20T15:44:42.197Z,100893.87
2019-06-20T15:49:36.498Z,100883.36
2019-06-20T15:54:30.483Z,100875.89
2019-06-20T15:59:24.461Z,100884.59
2019-06-20T16:04:18.521Z,100886.83
2019-06-20T16:09:12.505Z,100886.34
2019-06-20T16:14:06.488Z,100893.69
2019-06-20T16:19:00.473Z,100891.05
2019-06-20T16:23:54.687Z,100899.66
2019-06-20T16:28:48.769Z,100897.26
2019-06-20T16:33:42.753Z,100890.95
2019-06-20T16:38:36.758Z,100897.54
2019-06-20T16:43:30.713Z,100902.61
2019-06-20T16:48:24.768Z,100894.38
2019-06-20T16:53:18.878Z,100896.22
2019-06-20T16:58:13.110Z,100899.70
2019-06-20T17:03:07.189Z,100903.66
2019-06-20T17:08:03.229Z,100911.84
2019-06-20T17:16:26.462Z,100915.19
2019-06-20T17:21:20.622Z,100915.29
2019-06-20T17:26:14.693Z,100921.96
2019-06-20T17:31:09.115Z,100924.58
2019-06-20T17:36:17.181Z,100931.78
2019-06-20T17:40:59.295Z,100922.27
2019-06-20T17:48:16.782Z,100930.61
2019-06-20T17:53:10.894Z,100927.94
2019-06-20T17:58:04.875Z,100952.37
2019-06-20T18:02:59.108Z,100968.73
2019-06-20T18:07:53.479Z,100958.56
2019-06-20T18:12:47.465Z,100971.91
2019-06-20T18:17:41.563Z,100978.27
2019-06-20T18:22:35.679Z,100974.47
2019-06-20T18:27:29.745Z,100978.14
2019-06-20T18:32:23.713Z,100986.95
2019-06-20T18:37:31.080Z,100983.92
2019-06-20T18:42:13.742Z,100986.45
2019-06-20T18:47:07.922Z,100992.91
2019-06-20T18:52:02.006Z,100999.06
2019-06-20T18:56:56.179Z,101025.39
2019-06-20T19:01:50.452Z,101041.06
2019-06-20T19:06:44.618Z,101037.55
2019-06-20T19:11:38.742Z,101054.83
2019-06-20T19:16:32.921Z,101046.27
2019-06-20T19:21:27.020Z,101054.87
2019-06-20T19:26:21.441Z,101053.02
2019-06-20T19:31:15.875Z,101069.12
2019-06-20T19:36:09.987Z,101082.72
2019-06-20T19:41:04.059Z,101079.38
2019-06-20T19:45:58.162Z,101085.49
2019-06-20T19:50:52.388Z,101084.17
2019-06-20T19:55:46.486Z,101095.11
2019-06-20T20:00:40.653Z,101104.19
2019-06-20T20:05:34.824Z,101112.94
2019-06-20T20:10:42.146Z,101119.48
2019-06-20T20:15:38.279Z,101130.09
2019-06-20T20:20:32.403Z,101136.30
2019-06-20T20:25:26.506Z,101135.30
2019-06-20T20:30:20.797Z,101133.56
2019-06-20T20:35:14.879Z,101134.87
2019-06-20T20:40:09.467Z,101126.99
2019-06-20T20:45:04.991Z,101141.09
2019-06-20T20:49:59.171Z,101141.07
2019-06-20T20:54:53.159Z,101137.40
2019-06-20T20:59:47.124Z,101136.36
2019-06-20T21:04:41.105Z,101143.76
2019-06-20T21:09:35.119Z,101151.14
2019-06-20T21:14:29.191Z,101151.14
2019-06-20T21:19:23.287Z,101154.12
2019-06-20T21:24:17.301Z,101161.65
2019-06-20T21:29:11.327Z,101169.02
2019-06-20T21:34:05.410Z,101169.80
2019-06-20T21:38:59.396Z,101172.55
2019-06-20T21:43:53.466Z,101180.94
2019-06-20T21:48:47.488Z,101183.39
2019-06-20T21:53:41.504Z,101194.27
2019-06-20T21:58:35.467Z,101202.08
2019-06-20T22:03:29.486Z,101197.49
2019-06-20T22:08:23.563Z,101200.31
2019-06-20T22:13:17.634Z,101208.19
2019-06-20T22:18:11.698Z,101222.02
2019-06-20T22:23:05.768Z,101216.66
2019-06-20T22:28:00.037Z,101214.94
2019-06-20T22:32:54.001Z,101215.20
2019-06-20T22:37:47.990Z,101210.98
2019-06-20T22:42:41.928Z,101233.66
2019-06-20T22:47:36.105Z,101233.66
2019-06-20T22:52:30.232Z,101230.53
2019-06-20T22:57:24.190Z,101217.58
2019-06-20T23:02:20.952Z,101225.05
2019-06-20T23:07:15.044Z,101239.05
2019-06-20T23:12:09.021Z,101241.53
2019-06-20T23:17:03.123Z,101245.66
2019-06-20T23:21:57.214Z,101245.66
2019-06-20T23:26:51.295Z,101252.43
2019-06-20T23:31:45.256Z,101245.73
2019-06-20T23:36:39.226Z,101249.40
2019-06-20T23:41:33.183Z,101253.93
2019-06-20T23:46:27.158Z,101261.14
2019-06-20T23:51:25.559Z,101242.50
2019-06-20T23:56:19.507Z,101242.50
